MUBY/BYM METAR and TAF weather

Enter ICAO airport designator
Station Type Date Time Source
MUBY METAR 2022/12/20 16:50 UTC NOAA

MUBY 201650Z 10008KT 040V140 9000 SCT020 31/19 Q1018


Station Type Date Time Source
MUBY Decoded METAR 2022/12/20 16:50 UTC NOAA

Bayamo , Cuba (MUBY) 20-24N 076-37W
Dec 20, 2022 - 11:50 AM EST / 2022.12.20 1650 UTC
Wind: from the E (100 degrees) at 9 MPH (8 KT) (direction variable):0
Visibility: 5 mile(s):0
Sky conditions: partly cloudy
Temperature: 87 F (31 C)
Dew Point: 66 F (19 C)
Relative Humidity: 48%
Pressure (altimeter): 30.06 in. Hg (1018 hPa)
ob: MUBY 201650Z 10008KT 040V140 9000 SCT020 31/19 Q1018
cycle: 17

Station Type Date Time Source
MUBY TAF 2007/09/26 19:15 UTC NOAA